Weather reports worldwide

Advertisment
Sutton bonington, United Kingdom (99025): temperature & dewpoint: 19.05.2019 23:00:00 - 25.05.2019 23:00:00 (BST)Sutton bonington, United Kingdom (99025): temperature -20cm & temperature -100cm: 19.05.2019 23:00:00 - 25.05.2019 23:00:00 (BST)Sutton bonington, United Kingdom (99025): wind speed: 19.05.2019 23:00:00 - 25.05.2019 23:00:00 (BST)Sutton bonington, United Kingdom (99025): wind direction: 19.05.2019 23:00:00 - 25.05.2019 23:00:00 (BST)Sutton bonington, United Kingdom (99025): precipitation: 19.05.2019 23:00:00 - 25.05.2019 23:00:00 (BST)
Date & Time tt [°C] td [°C] tt -20cm [°C] tt -100cm [°C] ff [km/h] ff [kn] dd rr [mm]
25.05.2019 23:00:00 15,1 11,0 - - 8 4 SW -
25.05.2019 22:00:00 15,9 12,0 - - 4 2 SW 0,0
25.05.2019 21:00:00 16,9 11,7 - - 13 7 WNW 0,0
25.05.2019 20:00:00 17,3 11,5 - - 11 6 NW 0,0
25.05.2019 19:00:00 17,7 11,5 - - 11 6 WNW 0,0
25.05.2019 18:00:00 18,3 11,7 - - 13 7 WNW 0,0
25.05.2019 17:00:00 18,6 11,5 - - 9 5 WNW 0,0
25.05.2019 16:00:00 18,6 10,2 - - 13 7 W 0,0
25.05.2019 15:00:00 18,5 10,0 - - 16 9 W 0,0
25.05.2019 14:00:00 18,5 9,8 - - 15 8 W 0,0
25.05.2019 13:00:00 18,9 9,2 - - 15 8 W 0,0
25.05.2019 12:00:00 17,8 9,9 - - 13 7 WNW 0,0
25.05.2019 11:00:00 16,5 8,3 - - 15 8 W 0,0
25.05.2019 10:00:00 15,2 8,8 14,0 13,5 13 7 W 0,0
25.05.2019 09:00:00 14,2 9,5 - - 13 7 WNW 0,0
25.05.2019 08:00:00 13,0 9,3 - - 15 8 WNW 0,0
25.05.2019 07:00:00 12,8 10,0 - - 16 9 W 0,0
25.05.2019 06:00:00 11,3 10,3 - - 8 4 WSW 0,0
25.05.2019 05:00:00 12,2 10,5 - - 5 3 WNW 0,0
25.05.2019 04:00:00 12,5 10,4 - - 8 4 W 0,0
25.05.2019 03:00:00 12,6 10,0 - - 8 4 W 0,0
25.05.2019 02:00:00 12,2 9,6 - - 8 4 W 0,0
25.05.2019 01:00:00 12,7 9,6 - - 13 7 W 0,0
25.05.2019 00:00:00 12,0 9,4 - - 9 5 WSW 0,0
24.05.2019 23:00:00 12,3 9,1 - - 11 6 WNW 0,0
24.05.2019 22:00:00 13,3 8,7 - - 11 6 WNW 0,0
24.05.2019 21:00:00 15,2 9,0 - - 18 10 WNW 0,0
24.05.2019 20:00:00 15,5 9,5 - - 13 7 NW 0,0
24.05.2019 19:00:00 17,0 9,9 - - 18 10 WNW 0,0
24.05.2019 18:00:00 17,5 10,0 - - 18 10 NW 0,0
24.05.2019 17:00:00 19,3 11,0 - - 21 11 WNW 0,0
24.05.2019 16:00:00 18,5 10,0 - - 21 11 WNW 0,0
24.05.2019 15:00:00 18,4 9,8 - - 24 13 WNW 0,0
24.05.2019 14:00:00 18,3 10,2 - - 26 14 WNW 0,0
24.05.2019 13:00:00 18,1 10,6 - - 24 13 WNW 0,0
24.05.2019 12:00:00 17,7 10,6 - - 22 12 WNW 0,0
24.05.2019 11:00:00 17,0 9,9 - - 16 9 W 0,0
24.05.2019 10:00:00 15,6 10,7 13,7 13,2 18 10 W 0,0
24.05.2019 09:00:00 14,1 10,6 - - 16 9 W 0,0
24.05.2019 08:00:00 12,4 10,2 - - 18 10 W 0,0
24.05.2019 07:00:00 10,9 10,2 - - 8 4 WSW 0,0
24.05.2019 06:00:00 8,6 8,1 - - 5 3 SW 0,0
24.05.2019 05:00:00 7,7 7,2 - - 8 4 WSW 0,0
24.05.2019 04:00:00 8,2 7,1 - - 2 1 WNW 0,0
24.05.2019 03:00:00 8,8 7,2 - - 5 3 WNW 0,0
24.05.2019 02:00:00 9,6 7,5 - - 5 3 W 0,0
24.05.2019 01:00:00 10,1 7,5 - - 8 4 W 0,0
24.05.2019 00:00:00 11,6 7,9 - - 5 3 W 0,0
23.05.2019 23:00:00 11,8 7,7 - - 8 4 WNW 0,0
23.05.2019 22:00:00 12,7 7,8 - - 9 5 WNW 0,0
23.05.2019 21:00:00 15,8 6,3 - - 13 7 W 0,0
23.05.2019 20:00:00 17,9 5,1 - - 9 5 WNW 0,0
23.05.2019 19:00:00 18,4 3,4 - - 13 7 WNW 0,0
23.05.2019 18:00:00 20,3 5,5 - - 13 7 W 0,0
23.05.2019 17:00:00 20,4 5,7 - - 11 6 W 0,0
23.05.2019 16:00:00 20,0 5,7 - - 15 8 W 0,0
23.05.2019 15:00:00 19,4 6,9 - - 16 9 W 0,0
23.05.2019 14:00:00 19,1 6,1 - - 9 5 SW 0,0
23.05.2019 13:00:00 18,4 7,2 - - 13 7 WSW 0,0
23.05.2019 12:00:00 17,5 7,7 - - 13 7 SW 0,0
23.05.2019 11:00:00 16,3 6,0 - - 13 7 WSW 0,0
23.05.2019 10:00:00 15,7 8,7 13,2 12,9 8 4 WSW 0,0
23.05.2019 09:00:00 13,8 8,8 - - 5 3 WSW 0,0
23.05.2019 08:00:00 11,4 9,0 - - 2 1 NW 0,0
23.05.2019 07:00:00 8,7 8,1 - - 4 2 SW 0,0
23.05.2019 06:00:00 6,7 6,1 - - 0 0 N 0,0
23.05.2019 05:00:00 7,2 6,7 - - 2 1 SSW 0,0
23.05.2019 04:00:00 7,4 6,1 - - 0 0 N 0,0
23.05.2019 03:00:00 8,1 6,5 - - 0 0 N 0,0
23.05.2019 02:00:00 10,2 7,9 - - 4 2 SSW 0,0
23.05.2019 01:00:00 11,6 8,4 - - 2 1 W 0,0
23.05.2019 00:00:00 12,2 8,1 - - 4 2 W 0,0
22.05.2019 23:00:00 12,6 8,0 - - 5 3 NW 0,0
22.05.2019 22:00:00 13,4 8,7 - - 5 3 WNW 0,0
22.05.2019 21:00:00 16,0 6,1 - - 11 6 W 0,0
22.05.2019 20:00:00 16,5 6,6 - - 11 6 WNW 0,0
22.05.2019 19:00:00 17,4 4,7 - - 13 7 W 0,0
22.05.2019 18:00:00 18,4 5,5 - - 11 6 W 0,0
22.05.2019 17:00:00 18,8 5,4 - - 13 7 WSW 0,0
22.05.2019 16:00:00 18,9 5,6 - - 13 7 W 0,0
22.05.2019 15:00:00 18,5 6,6 - - 13 7 SW 0,0
22.05.2019 14:00:00 17,5 6,2 - - 16 9 W 0,0
22.05.2019 13:00:00 16,4 5,9 - - 16 9 WSW 0,0
22.05.2019 12:00:00 15,7 6,8 - - 13 7 WSW 0,0
22.05.2019 11:00:00 15,3 7,2 - - 11 6 WSW 0,0
22.05.2019 10:00:00 13,5 7,0 13,0 12,7 11 6 SW 0,0
22.05.2019 09:00:00 12,4 7,7 - - 8 4 SW 0,0
22.05.2019 08:00:00 10,4 6,1 - - 8 4 SSW 0,0
22.05.2019 07:00:00 8,9 6,1 - - 8 4 SW 0,0
22.05.2019 06:00:00 7,9 6,7 - - 4 2 SSW 0,0
22.05.2019 05:00:00 6,6 5,4 - - 2 1 SSE 0,0
22.05.2019 04:00:00 6,2 4,5 - - 2 1 SE 0,0
22.05.2019 03:00:00 7,4 4,6 - - 2 1 NE 0,0
22.05.2019 02:00:00 8,6 4,6 - - 2 1 WSW 0,0
22.05.2019 01:00:00 8,9 4,1 - - 5 3 NNW 0,0
22.05.2019 00:00:00 8,8 3,6 - - 8 4 NW 0,0
21.05.2019 23:00:00 9,6 3,3 - - 9 5 W 0,0
21.05.2019 22:00:00 10,5 2,4 - - 11 6 W 0,0
21.05.2019 21:00:00 11,8 2,1 - - 9 5 W 0,0
21.05.2019 20:00:00 14,7 2,0 - - 11 6 NW 0,0
21.05.2019 19:00:00 16,1 1,9 - - 18 10 NW 0,0
21.05.2019 18:00:00 16,9 3,9 - - 21 11 NW 0,0
21.05.2019 17:00:00 17,5 6,9 - - 21 11 WNW 0,0
21.05.2019 16:00:00 18,2 9,0 - - 16 9 W 0,0
21.05.2019 15:00:00 17,1 7,5 - - 21 11 NW 0,0
21.05.2019 14:00:00 17,3 8,2 - - 18 10 WNW 0,0
21.05.2019 13:00:00 17,0 7,9 - - 18 10 WNW 0,0
21.05.2019 12:00:00 16,8 10,3 - - 11 6 WNW 0,0
21.05.2019 11:00:00 15,3 7,9 - - 16 9 NW 0,0
21.05.2019 10:00:00 13,7 8,3 13,0 12,7 18 10 WNW 0,0
21.05.2019 09:00:00 12,7 8,4 - - 15 8 WNW 0,0
21.05.2019 08:00:00 11,2 8,7 - - 13 7 WNW 0,0
21.05.2019 07:00:00 9,3 8,1 - - 13 7 WNW 0,0
21.05.2019 06:00:00 6,8 6,3 - - 2 1 W 0,0
21.05.2019 05:00:00 6,4 5,6 - - 5 3 W 0,0
21.05.2019 04:00:00 7,7 6,5 - - 8 4 W 0,0
21.05.2019 03:00:00 7,6 6,1 - - 9 5 WSW 0,0
21.05.2019 02:00:00 8,1 6,5 - - 4 2 WNW 0,0
21.05.2019 01:00:00 8,6 6,2 - - 9 5 WNW 0,0
21.05.2019 00:00:00 9,5 6,6 - - 8 4 WNW 0,0
20.05.2019 23:00:00 10,3 6,6 - - 9 5 WNW 0,0
20.05.2019 22:00:00 11,3 6,9 - - 9 5 WNW 0,0
20.05.2019 21:00:00 13,8 7,6 - - 15 8 NW 0,0
20.05.2019 20:00:00 15,6 9,1 - - 11 6 NW 0,6
20.05.2019 19:00:00 17,0 9,9 - - 0 0 N 0,0
20.05.2019 18:00:00 16,9 8,5 - - 4 2 NNE 0,0
20.05.2019 17:00:00 16,8 8,2 - - 8 4 NNE 0,0
20.05.2019 16:00:00 16,6 9,2 - - 15 8 NW 0,0
20.05.2019 15:00:00 17,5 8,0 - - 13 7 NW 0,0
20.05.2019 14:00:00 17,6 9,3 - - 11 6 WNW 0,0
20.05.2019 13:00:00 16,2 8,7 - - 9 5 WNW 0,0
20.05.2019 12:00:00 16,8 9,4 - - 8 4 WNW 0,0
20.05.2019 11:00:00 15,4 9,2 - - 8 4 W 0,0
20.05.2019 10:00:00 15,1 10,3 12,9 12,4 8 4 NW 0,0
20.05.2019 09:00:00 13,0 9,6 - - 11 6 NW 0,0
20.05.2019 08:00:00 10,9 8,9 - - 11 6 WNW 0,0
20.05.2019 07:00:00 9,3 8,7 - - 5 3 W 0,0
20.05.2019 06:00:00 7,1 6,4 - - 5 3 WNW 0,0
20.05.2019 05:00:00 7,9 6,8 - - 5 3 W 0,0
20.05.2019 04:00:00 8,2 6,9 - - 8 4 W 0,0
20.05.2019 03:00:00 9,7 8,0 - - 4 2 NW 0,0
20.05.2019 02:00:00 9,9 8,3 - - 5 3 W 0,0
20.05.2019 01:00:00 10,8 8,5 - - 5 3 NW 0,0
20.05.2019 00:00:00 11,7 8,9 - - 8 4 WNW 0,0
19.05.2019 23:00:00 12,6 10,4 - - 8 4 WNW 0,0

tt = temperature
td = dewpoint
tt -20cm = temperature -20cm
tt -100cm = temperature -100cm
ff = wind speed
dd = wind direction
rr = precipitation

Next stations